sensor_id;sensor_type;location;lat;lon;timestamp;temperature;humidity
35325;DHT22;35135;47.510;19.036;2023-04-15T00:00:38;21.60;51.60
35325;DHT22;35135;47.510;19.036;2023-04-15T00:03:04;21.60;51.70
35325;DHT22;35135;47.510;19.036;2023-04-15T00:05:31;21.60;51.60
35325;DHT22;35135;47.510;19.036;2023-04-15T00:07:57;21.60;51.60
35325;DHT22;35135;47.510;19.036;2023-04-15T00:10:24;21.60;51.60
35325;DHT22;35135;47.510;19.036;2023-04-15T00:12:50;21.60;51.60
35325;DHT22;35135;47.510;19.036;2023-04-15T00:15:17;21.60;51.60
35325;DHT22;35135;47.510;19.036;2023-04-15T00:17:42;21.60;51.60
35325;DHT22;35135;47.510;19.036;2023-04-15T00:20:08;21.60;51.60
35325;DHT22;35135;47.510;19.036;2023-04-15T00:22:34;21.60;51.60
35325;DHT22;35135;47.510;19.036;2023-04-15T00:25:01;21.60;51.50
35325;DHT22;35135;47.510;19.036;2023-04-15T00:27:26;21.60;52.10
35325;DHT22;35135;47.510;19.036;2023-04-15T00:29:52;21.60;51.60
35325;DHT22;35135;47.510;19.036;2023-04-15T00:32:18;21.60;51.60
35325;DHT22;35135;47.510;19.036;2023-04-15T00:34:44;21.60;51.50
35325;DHT22;35135;47.510;19.036;2023-04-15T00:37:10;21.50;51.50
35325;DHT22;35135;47.510;19.036;2023-04-15T00:39:37;21.50;51.40
35325;DHT22;35135;47.510;19.036;2023-04-15T00:42:03;21.50;51.50
35325;DHT22;35135;47.510;19.036;2023-04-15T00:44:29;21.50;51.50
35325;DHT22;35135;47.510;19.036;2023-04-15T00:46:56;21.50;51.60
35325;DHT22;35135;47.510;19.036;2023-04-15T00:49:22;21.50;51.60
35325;DHT22;35135;47.510;19.036;2023-04-15T00:51:48;21.50;51.60
35325;DHT22;35135;47.510;19.036;2023-04-15T00:54:14;21.50;51.60
35325;DHT22;35135;47.510;19.036;2023-04-15T00:56:41;21.50;51.60
35325;DHT22;35135;47.510;19.036;2023-04-15T00:59:07;21.50;51.60
35325;DHT22;35135;47.510;19.036;2023-04-15T01:01:34;21.50;51.60
35325;DHT22;35135;47.510;19.036;2023-04-15T01:04:01;21.50;51.60
35325;DHT22;35135;47.510;19.036;2023-04-15T01:06:27;21.50;51.60
35325;DHT22;35135;47.510;19.036;2023-04-15T01:08:56;21.50;51.60
35325;DHT22;35135;47.510;19.036;2023-04-15T01:11:23;21.50;51.50
35325;DHT22;35135;47.510;19.036;2023-04-15T01:13:50;21.50;51.60
35325;DHT22;35135;47.510;19.036;2023-04-15T01:16:16;21.50;51.50
35325;DHT22;35135;47.510;19.036;2023-04-15T01:18:42;21.50;51.50
35325;DHT22;35135;47.510;19.036;2023-04-15T01:21:08;21.50;51.60
35325;DHT22;35135;47.510;19.036;2023-04-15T01:23:35;21.50;51.50
35325;DHT22;35135;47.510;19.036;2023-04-15T01:26:03;21.50;51.50
35325;DHT22;35135;47.510;19.036;2023-04-15T01:28:29;21.50;51.50
35325;DHT22;35135;47.510;19.036;2023-04-15T01:31:08;21.50;51.50
35325;DHT22;35135;47.510;19.036;2023-04-15T01:33:35;21.50;51.50
35325;DHT22;35135;47.510;19.036;2023-04-15T01:36:01;21.50;51.50
35325;DHT22;35135;47.510;19.036;2023-04-15T01:38:27;21.40;51.50
35325;DHT22;35135;47.510;19.036;2023-04-15T01:40:54;21.40;51.40
35325;DHT22;35135;47.510;19.036;2023-04-15T01:43:19;21.50;51.50
35325;DHT22;35135;47.510;19.036;2023-04-15T01:45:45;21.40;51.60
35325;DHT22;35135;47.510;19.036;2023-04-15T01:48:11;21.40;51.50
35325;DHT22;35135;47.510;19.036;2023-04-15T01:50:37;21.40;51.40
35325;DHT22;35135;47.510;19.036;2023-04-15T01:53:03;21.40;52.00
35325;DHT22;35135;47.510;19.036;2023-04-15T01:55:29;21.50;51.50
35325;DHT22;35135;47.510;19.036;2023-04-15T01:57:55;21.40;51.50
35325;DHT22;35135;47.510;19.036;2023-04-15T02:00:21;21.40;51.50
35325;DHT22;35135;47.510;19.036;2023-04-15T02:02:47;21.50;51.50
35325;DHT22;35135;47.510;19.036;2023-04-15T02:05:14;21.50;51.50
35325;DHT22;35135;47.510;19.036;2023-04-15T02:07:43;21.40;51.50
35325;DHT22;35135;47.510;19.036;2023-04-15T02:10:09;21.40;51.50
35325;DHT22;35135;47.510;19.036;2023-04-15T02:12:37;21.40;51.50
35325;DHT22;35135;47.510;19.036;2023-04-15T02:15:03;21.40;51.50
35325;DHT22;35135;47.510;19.036;2023-04-15T02:17:29;21.40;51.60
35325;DHT22;35135;47.510;19.036;2023-04-15T02:19:59;21.40;51.50
35325;DHT22;35135;47.510;19.036;2023-04-15T02:22:25;21.40;51.50
35325;DHT22;35135;47.510;19.036;2023-04-15T02:24:51;21.40;51.40
35325;DHT22;35135;47.510;19.036;2023-04-15T02:27:17;21.40;51.40
35325;DHT22;35135;47.510;19.036;2023-04-15T02:29:44;21.40;51.40
35325;DHT22;35135;47.510;19.036;2023-04-15T02:32:11;21.40;51.50
35325;DHT22;35135;47.510;19.036;2023-04-15T02:34:37;21.40;51.40
35325;DHT22;35135;47.510;19.036;2023-04-15T02:37:06;21.40;51.50
35325;DHT22;35135;47.510;19.036;2023-04-15T02:39:32;21.40;51.40
35325;DHT22;35135;47.510;19.036;2023-04-15T02:41:58;21.40;51.50
35325;DHT22;35135;47.510;19.036;2023-04-15T02:44:25;21.40;51.50
35325;DHT22;35135;47.510;19.036;2023-04-15T02:46:52;21.40;51.50
35325;DHT22;35135;47.510;19.036;2023-04-15T02:49:19;21.40;51.50
35325;DHT22;35135;47.510;19.036;2023-04-15T02:51:46;21.40;51.50
35325;DHT22;35135;47.510;19.036;2023-04-15T02:54:19;21.40;51.40
35325;DHT22;35135;47.510;19.036;2023-04-15T02:56:45;21.40;51.40
35325;DHT22;35135;47.510;19.036;2023-04-15T02:59:11;21.30;51.40
35325;DHT22;35135;47.510;19.036;2023-04-15T03:01:37;21.30;51.30
35325;DHT22;35135;47.510;19.036;2023-04-15T03:04:03;21.30;51.40
35325;DHT22;35135;47.510;19.036;2023-04-15T03:06:29;21.30;51.40
35325;DHT22;35135;47.510;19.036;2023-04-15T03:08:55;21.30;51.40
35325;DHT22;35135;47.510;19.036;2023-04-15T03:11:21;21.40;51.40
35325;DHT22;35135;47.510;19.036;2023-04-15T03:13:47;21.30;51.40
35325;DHT22;35135;47.510;19.036;2023-04-15T03:16:13;21.30;51.40
35325;DHT22;35135;47.510;19.036;2023-04-15T03:18:39;21.30;51.40
35325;DHT22;35135;47.510;19.036;2023-04-15T03:21:04;21.30;51.40
35325;DHT22;35135;47.510;19.036;2023-04-15T03:23:31;21.40;51.40
35325;DHT22;35135;47.510;19.036;2023-04-15T03:25:57;21.30;51.30
35325;DHT22;35135;47.510;19.036;2023-04-15T03:28:24;21.30;51.30
35325;DHT22;35135;47.510;19.036;2023-04-15T03:30:50;21.30;51.30
35325;DHT22;35135;47.510;19.036;2023-04-15T03:33:15;21.30;51.30
35325;DHT22;35135;47.510;19.036;2023-04-15T03:35:41;21.30;51.30
35325;DHT22;35135;47.510;19.036;2023-04-15T03:38:07;21.30;51.30
35325;DHT22;35135;47.510;19.036;2023-04-15T03:40:32;21.30;51.40
35325;DHT22;35135;47.510;19.036;2023-04-15T03:42:58;21.30;51.40
35325;DHT22;35135;47.510;19.036;2023-04-15T03:45:24;21.30;51.40
35325;DHT22;35135;47.510;19.036;2023-04-15T03:47:50;21.30;51.40
35325;DHT22;35135;47.510;19.036;2023-04-15T03:50:16;21.30;51.30
35325;DHT22;35135;47.510;19.036;2023-04-15T03:52:43;21.30;51.30
35325;DHT22;35135;47.510;19.036;2023-04-15T03:55:08;21.30;51.40
35325;DHT22;35135;47.510;19.036;2023-04-15T03:57:34;21.30;51.40
35325;DHT22;35135;47.510;19.036;2023-04-15T04:00:04;21.30;51.30
35325;DHT22;35135;47.510;19.036;2023-04-15T04:02:30;21.30;51.40
35325;DHT22;35135;47.510;19.036;2023-04-15T04:04:55;21.30;51.50
35325;DHT22;35135;47.510;19.036;2023-04-15T04:07:22;21.30;51.50
35325;DHT22;35135;47.510;19.036;2023-04-15T04:09:49;21.30;51.40
35325;DHT22;35135;47.510;19.036;2023-04-15T04:12:15;21.30;51.40
35325;DHT22;35135;47.510;19.036;2023-04-15T04:14:40;21.30;51.30
35325;DHT22;35135;47.510;19.036;2023-04-15T04:17:06;21.30;51.40
35325;DHT22;35135;47.510;19.036;2023-04-15T04:19:32;21.30;51.50
35325;DHT22;35135;47.510;19.036;2023-04-15T04:21:58;21.30;51.50
35325;DHT22;35135;47.510;19.036;2023-04-15T04:24:24;21.30;51.40
35325;DHT22;35135;47.510;19.036;2023-04-15T04:26:50;21.30;51.40
35325;DHT22;35135;47.510;19.036;2023-04-15T04:29:15;21.30;51.40
35325;DHT22;35135;47.510;19.036;2023-04-15T04:31:41;21.30;51.40
35325;DHT22;35135;47.510;19.036;2023-04-15T04:34:07;21.30;51.40
35325;DHT22;35135;47.510;19.036;2023-04-15T04:36:32;21.30;51.40
35325;DHT22;35135;47.510;19.036;2023-04-15T04:38:58;21.30;51.40
35325;DHT22;35135;47.510;19.036;2023-04-15T04:41:24;21.30;51.40
35325;DHT22;35135;47.510;19.036;2023-04-15T04:43:49;21.30;51.40
35325;DHT22;35135;47.510;19.036;2023-04-15T04:46:15;21.30;51.40
35325;DHT22;35135;47.510;19.036;2023-04-15T04:48:41;21.30;51.40
35325;DHT22;35135;47.510;19.036;2023-04-15T04:51:07;21.30;51.40
35325;DHT22;35135;47.510;19.036;2023-04-15T04:53:32;21.30;51.20
35325;DHT22;35135;47.510;19.036;2023-04-15T04:55:58;21.30;51.30
35325;DHT22;35135;47.510;19.036;2023-04-15T04:58:24;21.30;51.30
35325;DHT22;35135;47.510;19.036;2023-04-15T05:00:49;21.30;51.80
35325;DHT22;35135;47.510;19.036;2023-04-15T05:03:16;21.30;51.20
35325;DHT22;35135;47.510;19.036;2023-04-15T05:05:42;21.30;51.30
35325;DHT22;35135;47.510;19.036;2023-04-15T05:08:07;21.30;51.40
35325;DHT22;35135;47.510;19.036;2023-04-15T05:10:33;21.30;51.20
35325;DHT22;35135;47.510;19.036;2023-04-15T05:12:59;21.30;51.30
35325;DHT22;35135;47.510;19.036;2023-04-15T05:15:24;21.30;51.30
35325;DHT22;35135;47.510;19.036;2023-04-15T05:17:50;21.30;51.20
35325;DHT22;35135;47.510;19.036;2023-04-15T05:20:16;21.40;51.20
35325;DHT22;35135;47.510;19.036;2023-04-15T05:22:42;21.30;51.30
35325;DHT22;35135;47.510;19.036;2023-04-15T05:25:08;21.30;51.10
35325;DHT22;35135;47.510;19.036;2023-04-15T05:27:34;21.30;51.40
35325;DHT22;35135;47.510;19.036;2023-04-15T05:30:00;21.30;51.20
35325;DHT22;35135;47.510;19.036;2023-04-15T05:32:27;21.30;51.30
35325;DHT22;35135;47.510;19.036;2023-04-15T05:34:54;21.30;51.20
35325;DHT22;35135;47.510;19.036;2023-04-15T05:37:20;21.30;51.10
35325;DHT22;35135;47.510;19.036;2023-04-15T05:39:47;21.40;51.30
35325;DHT22;35135;47.510;19.036;2023-04-15T05:42:14;21.40;51.20
35325;DHT22;35135;47.510;19.036;2023-04-15T05:44:41;21.40;51.10
35325;DHT22;35135;47.510;19.036;2023-04-15T05:47:07;21.40;51.10
35325;DHT22;35135;47.510;19.036;2023-04-15T05:49:34;21.40;51.10
35325;DHT22;35135;47.510;19.036;2023-04-15T05:52:00;21.40;51.30
35325;DHT22;35135;47.510;19.036;2023-04-15T05:54:26;21.40;51.20
35325;DHT22;35135;47.510;19.036;2023-04-15T05:56:53;21.40;51.50
35325;DHT22;35135;47.510;19.036;2023-04-15T05:59:18;21.40;51.40
35325;DHT22;35135;47.510;19.036;2023-04-15T06:01:44;21.40;51.10
35325;DHT22;35135;47.510;19.036;2023-04-15T06:04:10;21.40;50.90
35325;DHT22;35135;47.510;19.036;2023-04-15T06:06:36;21.40;51.20
35325;DHT22;35135;47.510;19.036;2023-04-15T06:09:03;21.40;51.50
35325;DHT22;35135;47.510;19.036;2023-04-15T06:11:28;21.40;51.60
35325;DHT22;35135;47.510;19.036;2023-04-15T06:13:55;21.40;51.50
35325;DHT22;35135;47.510;19.036;2023-04-15T06:16:21;21.50;51.90
35325;DHT22;35135;47.510;19.036;2023-04-15T06:18:47;21.50;51.80
35325;DHT22;35135;47.510;19.036;2023-04-15T06:21:14;21.50;51.90
35325;DHT22;35135;47.510;19.036;2023-04-15T06:23:40;21.50;52.10
35325;DHT22;35135;47.510;19.036;2023-04-15T06:26:06;21.50;52.20
35325;DHT22;35135;47.510;19.036;2023-04-15T06:28:32;21.50;52.40
35325;DHT22;35135;47.510;19.036;2023-04-15T06:30:57;21.50;52.60
35325;DHT22;35135;47.510;19.036;2023-04-15T06:33:23;21.50;52.60
35325;DHT22;35135;47.510;19.036;2023-04-15T06:35:49;21.50;52.60
35325;DHT22;35135;47.510;19.036;2023-04-15T06:38:15;21.50;52.00
35325;DHT22;35135;47.510;19.036;2023-04-15T06:40:41;21.60;52.00
35325;DHT22;35135;47.510;19.036;2023-04-15T06:43:07;21.60;52.10
35325;DHT22;35135;47.510;19.036;2023-04-15T06:45:33;21.60;51.90
35325;DHT22;35135;47.510;19.036;2023-04-15T06:47:59;21.70;51.90
35325;DHT22;35135;47.510;19.036;2023-04-15T06:50:25;21.70;51.90
35325;DHT22;35135;47.510;19.036;2023-04-15T06:52:54;21.80;51.90
35325;DHT22;35135;47.510;19.036;2023-04-15T06:55:20;21.90;51.90
35325;DHT22;35135;47.510;19.036;2023-04-15T06:57:46;22.00;51.90
35325;DHT22;35135;47.510;19.036;2023-04-15T07:00:12;22.10;51.50
35325;DHT22;35135;47.510;19.036;2023-04-15T07:02:38;22.10;51.20
35325;DHT22;35135;47.510;19.036;2023-04-15T07:05:05;22.20;51.00
35325;DHT22;35135;47.510;19.036;2023-04-15T07:07:31;22.20;51.20
35325;DHT22;35135;47.510;19.036;2023-04-15T07:09:57;22.30;50.90
35325;DHT22;35135;47.510;19.036;2023-04-15T07:12:22;22.40;51.10
35325;DHT22;35135;47.510;19.036;2023-04-15T07:14:48;22.40;50.90
35325;DHT22;35135;47.510;19.036;2023-04-15T07:17:14;22.50;50.60
35325;DHT22;35135;47.510;19.036;2023-04-15T07:19:40;22.50;50.60
35325;DHT22;35135;47.510;19.036;2023-04-15T07:22:06;22.50;50.50
35325;DHT22;35135;47.510;19.036;2023-04-15T07:24:32;22.60;50.30
35325;DHT22;35135;47.510;19.036;2023-04-15T07:26:58;22.60;50.40
35325;DHT22;35135;47.510;19.036;2023-04-15T07:29:24;22.60;50.40
35325;DHT22;35135;47.510;19.036;2023-04-15T07:31:50;22.60;50.20
35325;DHT22;35135;47.510;19.036;2023-04-15T07:34:17;22.60;50.30
35325;DHT22;35135;47.510;19.036;2023-04-15T07:36:43;22.60;50.20
35325;DHT22;35135;47.510;19.036;2023-04-15T07:39:10;22.60;50.20
35325;DHT22;35135;47.510;19.036;2023-04-15T07:41:36;22.50;50.10
35325;DHT22;35135;47.510;19.036;2023-04-15T07:44:02;22.50;50.20
35325;DHT22;35135;47.510;19.036;2023-04-15T07:46:28;22.50;50.40
35325;DHT22;35135;47.510;19.036;2023-04-15T07:48:54;22.50;50.30
35325;DHT22;35135;47.510;19.036;2023-04-15T07:51:20;22.50;50.20
35325;DHT22;35135;47.510;19.036;2023-04-15T07:53:48;22.50;50.10
35325;DHT22;35135;47.510;19.036;2023-04-15T07:56:14;22.50;50.10
35325;DHT22;35135;47.510;19.036;2023-04-15T07:58:40;22.60;50.10
35325;DHT22;35135;47.510;19.036;2023-04-15T08:01:06;22.60;50.00
35325;DHT22;35135;47.510;19.036;2023-04-15T08:03:33;22.60;50.00
35325;DHT22;35135;47.510;19.036;2023-04-15T08:05:58;22.60;49.90
35325;DHT22;35135;47.510;19.036;2023-04-15T08:08:24;22.60;49.90
35325;DHT22;35135;47.510;19.036;2023-04-15T08:10:50;22.60;49.90
35325;DHT22;35135;47.510;19.036;2023-04-15T08:13:17;22.60;49.90
35325;DHT22;35135;47.510;19.036;2023-04-15T08:15:42;22.50;50.00
35325;DHT22;35135;47.510;19.036;2023-04-15T08:18:08;22.50;50.00
35325;DHT22;35135;47.510;19.036;2023-04-15T08:20:34;22.50;50.20
35325;DHT22;35135;47.510;19.036;2023-04-15T08:22:59;22.40;50.20
35325;DHT22;35135;47.510;19.036;2023-04-15T08:25:25;22.50;50.30
35325;DHT22;35135;47.510;19.036;2023-04-15T08:27:54;22.50;50.30
35325;DHT22;35135;47.510;19.036;2023-04-15T08:30:19;22.40;50.30
35325;DHT22;35135;47.510;19.036;2023-04-15T08:32:46;22.50;50.20
35325;DHT22;35135;47.510;19.036;2023-04-15T08:35:12;22.50;50.20
35325;DHT22;35135;47.510;19.036;2023-04-15T08:37:38;22.50;50.20
35325;DHT22;35135;47.510;19.036;2023-04-15T08:40:04;22.60;50.20
35325;DHT22;35135;47.510;19.036;2023-04-15T08:42:31;22.50;50.20
35325;DHT22;35135;47.510;19.036;2023-04-15T08:44:59;22.50;50.20
35325;DHT22;35135;47.510;19.036;2023-04-15T08:47:29;22.40;50.10
35325;DHT22;35135;47.510;19.036;2023-04-15T08:49:57;22.40;50.20
35325;DHT22;35135;47.510;19.036;2023-04-15T08:52:25;22.40;50.10
35325;DHT22;35135;47.510;19.036;2023-04-15T08:54:54;22.40;50.20
35325;DHT22;35135;47.510;19.036;2023-04-15T08:57:26;22.40;50.40
35325;DHT22;35135;47.510;19.036;2023-04-15T08:59:55;22.40;50.60
35325;DHT22;35135;47.510;19.036;2023-04-15T09:02:23;22.40;50.50
35325;DHT22;35135;47.510;19.036;2023-04-15T09:04:50;22.40;50.50
35325;DHT22;35135;47.510;19.036;2023-04-15T09:07:15;22.40;50.60
35325;DHT22;35135;47.510;19.036;2023-04-15T09:09:41;22.40;50.80
35325;DHT22;35135;47.510;19.036;2023-04-15T09:12:08;22.40;50.90
35325;DHT22;35135;47.510;19.036;2023-04-15T09:14:34;22.40;50.80
35325;DHT22;35135;47.510;19.036;2023-04-15T09:17:01;22.40;51.00
35325;DHT22;35135;47.510;19.036;2023-04-15T09:19:28;22.40;50.90
35325;DHT22;35135;47.510;19.036;2023-04-15T09:21:55;22.40;51.10
35325;DHT22;35135;47.510;19.036;2023-04-15T09:24:22;22.40;51.10
35325;DHT22;35135;47.510;19.036;2023-04-15T09:26:51;22.30;51.00
35325;DHT22;35135;47.510;19.036;2023-04-15T09:29:18;22.30;51.20
35325;DHT22;35135;47.510;19.036;2023-04-15T09:31:44;22.30;51.20
35325;DHT22;35135;47.510;19.036;2023-04-15T09:34:11;22.30;51.30
35325;DHT22;35135;47.510;19.036;2023-04-15T09:39:12;22.30;51.30
35325;DHT22;35135;47.510;19.036;2023-04-15T09:41:38;22.40;51.60
35325;DHT22;35135;47.510;19.036;2023-04-15T09:44:05;22.30;51.60
35325;DHT22;35135;47.510;19.036;2023-04-15T09:46:44;22.30;51.70
35325;DHT22;35135;47.510;19.036;2023-04-15T09:49:11;22.40;51.80
35325;DHT22;35135;47.510;19.036;2023-04-15T09:51:37;22.40;52.00
35325;DHT22;35135;47.510;19.036;2023-04-15T09:54:03;22.40;52.10
35325;DHT22;35135;47.510;19.036;2023-04-15T09:56:37;22.40;52.70
35325;DHT22;35135;47.510;19.036;2023-04-15T09:59:06;22.40;52.60
35325;DHT22;35135;47.510;19.036;2023-04-15T10:01:32;22.40;52.80
35325;DHT22;35135;47.510;19.036;2023-04-15T10:03:58;22.40;53.50
35325;DHT22;35135;47.510;19.036;2023-04-15T10:06:27;22.40;53.60
35325;DHT22;35135;47.510;19.036;2023-04-15T10:08:53;22.40;53.20
35325;DHT22;35135;47.510;19.036;2023-04-15T10:11:20;22.40;53.70
35325;DHT22;35135;47.510;19.036;2023-04-15T10:13:49;22.40;53.40
35325;DHT22;35135;47.510;19.036;2023-04-15T10:16:18;22.40;53.60
35325;DHT22;35135;47.510;19.036;2023-04-15T10:18:51;22.30;53.60
35325;DHT22;35135;47.510;19.036;2023-04-15T10:21:18;22.40;53.90
35325;DHT22;35135;47.510;19.036;2023-04-15T10:23:45;22.40;53.50
35325;DHT22;35135;47.510;19.036;2023-04-15T10:26:12;22.40;54.20
35325;DHT22;35135;47.510;19.036;2023-04-15T10:28:39;22.40;54.60
35325;DHT22;35135;47.510;19.036;2023-04-15T10:31:06;22.40;53.30
35325;DHT22;35135;47.510;19.036;2023-04-15T10:33:34;22.40;53.00
35325;DHT22;35135;47.510;19.036;2023-04-15T10:36:00;22.40;52.90
35325;DHT22;35135;47.510;19.036;2023-04-15T10:38:42;22.40;52.60
35325;DHT22;35135;47.510;19.036;2023-04-15T10:41:24;22.40;52.60
35325;DHT22;35135;47.510;19.036;2023-04-15T10:44:04;22.40;52.70
35325;DHT22;35135;47.510;19.036;2023-04-15T10:51:32;22.40;52.80
35325;DHT22;35135;47.510;19.036;2023-04-15T10:53:58;22.40;52.90
35325;DHT22;35135;47.510;19.036;2023-04-15T10:56:24;22.40;52.80
35325;DHT22;35135;47.510;19.036;2023-04-15T10:58:50;22.40;53.20
35325;DHT22;35135;47.510;19.036;2023-04-15T11:01:19;22.40;53.40
35325;DHT22;35135;47.510;19.036;2023-04-15T11:03:48;22.40;53.40
35325;DHT22;35135;47.510;19.036;2023-04-15T11:06:15;22.40;53.80
35325;DHT22;35135;47.510;19.036;2023-04-15T11:08:55;22.50;53.60
35325;DHT22;35135;47.510;19.036;2023-04-15T11:11:21;22.50;54.20
35325;DHT22;35135;47.510;19.036;2023-04-15T11:13:48;22.50;53.70
35325;DHT22;35135;47.510;19.036;2023-04-15T11:16:14;22.50;54.00
35325;DHT22;35135;47.510;19.036;2023-04-15T11:18:40;22.50;54.20
35325;DHT22;35135;47.510;19.036;2023-04-15T11:21:07;22.50;53.50
35325;DHT22;35135;47.510;19.036;2023-04-15T11:23:39;22.50;53.40
35325;DHT22;35135;47.510;19.036;2023-04-15T11:26:09;22.50;53.50
35325;DHT22;35135;47.510;19.036;2023-04-15T11:28:38;22.50;53.70
35325;DHT22;35135;47.510;19.036;2023-04-15T11:31:12;22.50;53.60
35325;DHT22;35135;47.510;19.036;2023-04-15T11:34:05;22.50;53.40
35325;DHT22;35135;47.510;19.036;2023-04-15T11:36:30;22.60;53.30
35325;DHT22;35135;47.510;19.036;2023-04-15T11:38:58;22.60;53.30
35325;DHT22;35135;47.510;19.036;2023-04-15T11:41:24;22.60;53.50
35325;DHT22;35135;47.510;19.036;2023-04-15T11:43:50;22.60;53.30
35325;DHT22;35135;47.510;19.036;2023-04-15T11:46:16;22.60;53.30
35325;DHT22;35135;47.510;19.036;2023-04-15T11:48:44;22.60;53.50
35325;DHT22;35135;47.510;19.036;2023-04-15T11:51:10;22.60;53.70
35325;DHT22;35135;47.510;19.036;2023-04-15T11:53:43;22.60;53.60
35325;DHT22;35135;47.510;19.036;2023-04-15T11:56:17;22.60;53.60
35325;DHT22;35135;47.510;19.036;2023-04-15T11:58:44;22.60;53.50
35325;DHT22;35135;47.510;19.036;2023-04-15T12:01:11;22.60;53.60
35325;DHT22;35135;47.510;19.036;2023-04-15T12:03:42;22.60;53.50
35325;DHT22;35135;47.510;19.036;2023-04-15T12:09:00;22.50;53.50
35325;DHT22;35135;47.510;19.036;2023-04-15T12:11:27;22.60;53.30
35325;DHT22;35135;47.510;19.036;2023-04-15T12:16:36;22.60;53.40
35325;DHT22;35135;47.510;19.036;2023-04-15T12:19:10;22.60;53.20
35325;DHT22;35135;47.510;19.036;2023-04-15T12:21:38;22.70;53.10
35325;DHT22;35135;47.510;19.036;2023-04-15T12:24:06;22.70;53.10
35325;DHT22;35135;47.510;19.036;2023-04-15T12:29:05;22.70;53.20
35325;DHT22;35135;47.510;19.036;2023-04-15T12:31:31;22.70;53.30
35325;DHT22;35135;47.510;19.036;2023-04-15T12:33:58;22.70;53.20
35325;DHT22;35135;47.510;19.036;2023-04-15T12:36:25;22.70;53.20
35325;DHT22;35135;47.510;19.036;2023-04-15T12:38:51;22.70;53.20
35325;DHT22;35135;47.510;19.036;2023-04-15T12:41:17;22.70;53.10
35325;DHT22;35135;47.510;19.036;2023-04-15T12:43:45;22.70;53.30
35325;DHT22;35135;47.510;19.036;2023-04-15T12:46:12;22.70;53.20
35325;DHT22;35135;47.510;19.036;2023-04-15T12:48:39;22.70;53.20
35325;DHT22;35135;47.510;19.036;2023-04-15T12:51:05;22.70;53.20
35325;DHT22;35135;47.510;19.036;2023-04-15T12:53:31;22.70;53.60
35325;DHT22;35135;47.510;19.036;2023-04-15T12:55:57;22.70;53.70
35325;DHT22;35135;47.510;19.036;2023-04-15T12:58:22;22.70;53.40
35325;DHT22;35135;47.510;19.036;2023-04-15T13:00:48;22.70;53.40
35325;DHT22;35135;47.510;19.036;2023-04-15T13:03:15;22.70;53.30
35325;DHT22;35135;47.510;19.036;2023-04-15T13:05:41;22.70;53.90
35325;DHT22;35135;47.510;19.036;2023-04-15T13:08:07;22.70;53.40
35325;DHT22;35135;47.510;19.036;2023-04-15T13:10:34;22.70;52.80
35325;DHT22;35135;47.510;19.036;2023-04-15T13:13:03;22.60;50.70
35325;DHT22;35135;47.510;19.036;2023-04-15T13:15:29;22.60;51.80
35325;DHT22;35135;47.510;19.036;2023-04-15T13:17:56;22.50;52.00
35325;DHT22;35135;47.510;19.036;2023-04-15T13:20:21;22.50;52.10
35325;DHT22;35135;47.510;19.036;2023-04-15T13:22:47;22.60;52.30
35325;DHT22;35135;47.510;19.036;2023-04-15T13:25:13;22.60;52.30
35325;DHT22;35135;47.510;19.036;2023-04-15T13:27:38;22.60;52.30
35325;DHT22;35135;47.510;19.036;2023-04-15T13:30:05;22.60;52.10
35325;DHT22;35135;47.510;19.036;2023-04-15T13:32:31;22.60;52.10
35325;DHT22;35135;47.510;19.036;2023-04-15T13:34:56;22.60;52.10
35325;DHT22;35135;47.510;19.036;2023-04-15T13:37:29;22.60;52.00
35325;DHT22;35135;47.510;19.036;2023-04-15T13:39:55;22.60;52.10
35325;DHT22;35135;47.510;19.036;2023-04-15T13:42:21;22.60;52.10
35325;DHT22;35135;47.510;19.036;2023-04-15T13:44:49;22.60;52.10
35325;DHT22;35135;47.510;19.036;2023-04-15T13:47:16;22.60;52.10
35325;DHT22;35135;47.510;19.036;2023-04-15T13:49:42;22.60;52.20
35325;DHT22;35135;47.510;19.036;2023-04-15T13:52:08;22.60;52.20
35325;DHT22;35135;47.510;19.036;2023-04-15T13:54:34;22.60;52.20
35325;DHT22;35135;47.510;19.036;2023-04-15T13:56:59;22.60;52.30
35325;DHT22;35135;47.510;19.036;2023-04-15T13:59:26;22.60;52.10
35325;DHT22;35135;47.510;19.036;2023-04-15T14:01:52;22.60;52.00
35325;DHT22;35135;47.510;19.036;2023-04-15T14:04:17;22.60;52.60
35325;DHT22;35135;47.510;19.036;2023-04-15T14:06:43;22.60;52.00
35325;DHT22;35135;47.510;19.036;2023-04-15T14:09:09;22.60;52.10
35325;DHT22;35135;47.510;19.036;2023-04-15T14:11:36;22.60;52.10
35325;DHT22;35135;47.510;19.036;2023-04-15T14:14:02;22.60;52.70
35325;DHT22;35135;47.510;19.036;2023-04-15T14:16:28;22.60;53.40
35325;DHT22;35135;47.510;19.036;2023-04-15T14:18:53;22.60;52.70
35325;DHT22;35135;47.510;19.036;2023-04-15T14:21:19;22.60;53.00
35325;DHT22;35135;47.510;19.036;2023-04-15T14:23:45;22.60;52.90
35325;DHT22;35135;47.510;19.036;2023-04-15T14:26:11;22.60;53.10
35325;DHT22;35135;47.510;19.036;2023-04-15T14:28:38;22.60;53.00
35325;DHT22;35135;47.510;19.036;2023-04-15T14:31:03;22.60;53.30
35325;DHT22;35135;47.510;19.036;2023-04-15T14:33:29;22.60;53.40
35325;DHT22;35135;47.510;19.036;2023-04-15T14:35:55;22.60;53.40
35325;DHT22;35135;47.510;19.036;2023-04-15T14:38:20;22.60;53.50
35325;DHT22;35135;47.510;19.036;2023-04-15T14:40:47;22.60;53.50
35325;DHT22;35135;47.510;19.036;2023-04-15T14:43:13;22.60;53.60
35325;DHT22;35135;47.510;19.036;2023-04-15T14:45:38;22.60;53.60
35325;DHT22;35135;47.510;19.036;2023-04-15T14:48:04;22.60;54.30
35325;DHT22;35135;47.510;19.036;2023-04-15T14:50:31;22.60;54.40
35325;DHT22;35135;47.510;19.036;2023-04-15T14:52:57;22.60;54.80
35325;DHT22;35135;47.510;19.036;2023-04-15T14:55:23;22.60;55.00
35325;DHT22;35135;47.510;19.036;2023-04-15T14:57:49;22.60;54.80
35325;DHT22;35135;47.510;19.036;2023-04-15T15:00:15;22.70;55.00
35325;DHT22;35135;47.510;19.036;2023-04-15T15:02:40;22.70;54.90
35325;DHT22;35135;47.510;19.036;2023-04-15T15:05:08;22.70;54.70
35325;DHT22;35135;47.510;19.036;2023-04-15T15:07:34;22.70;54.40
35325;DHT22;35135;47.510;19.036;2023-04-15T15:10:01;22.70;52.40
35325;DHT22;35135;47.510;19.036;2023-04-15T15:12:27;22.60;50.50
35325;DHT22;35135;47.510;19.036;2023-04-15T15:14:54;22.50;49.80
35325;DHT22;35135;47.510;19.036;2023-04-15T15:17:20;22.40;49.30
35325;DHT22;35135;47.510;19.036;2023-04-15T15:19:46;22.30;48.50
35325;DHT22;35135;47.510;19.036;2023-04-15T15:22:12;22.20;48.10
35325;DHT22;35135;47.510;19.036;2023-04-15T15:24:37;22.20;48.10
35325;DHT22;35135;47.510;19.036;2023-04-15T15:27:03;22.10;47.40